This is the latest recevied weather packets stored in our database for station/object W2JGA. If no packets are shown the sender has not sent any weather packets the latest 10 day(s).
| Time | Temp. | Humidity | Pressure | Rain* | Wind** | Luminosity | Snow |
|---|---|---|---|---|---|---|---|
| 1778003743 | 19.44° C | 62% | 1015 hPa | 0 mm | - | 374 W/m² | - |
| 1778003441 | 20° C | 63% | 1015.4 hPa | 0 mm | - | 150 W/m² | - |
| 1778003138 | 20.56° C | 62% | 1015.4 hPa | 0 mm | - | 259 W/m² | - |
| 1778002833 | 20.56° C | 62% | 1015.4 hPa | 0 mm | - | 1018 W/m² | - |
| 1778002531 | 21.67° C | 61% | 1015.4 hPa | 0 mm | - | 719 W/m² | - |
| 1778002227 | 21.67° C | 58% | 1015.4 hPa | 0 mm | - | 729 W/m² | - |
| 1778001925 | 20.56° C | 63% | 1015.4 hPa | 0 mm | - | 988 W/m² | - |
| 1778001621 | 20.56° C | 62% | 1015.4 hPa | 0 mm | - | 295 W/m² | - |
| 1778001316 | 20.56° C | 63% | 1015.4 hPa | 0 mm | - | 538 W/m² | - |
| 1778001014 | 21.11° C | 62% | 1015.4 hPa | 0 mm | - | 671 W/m² | - |
| 1778000705 | 20.56° C | 62% | 1015.4 hPa | 0 mm | - | 491 W/m² | - |
| 1778000401 | 20° C | 65% | 1015 hPa | 0 mm | - | 309 W/m² | - |
| 1778000096 | 20° C | 64% | 1015.4 hPa | 0 mm | - | 589 W/m² | - |
| 1777999792 | 20° C | 66% | 1015.4 hPa | 0 mm | - | 700 W/m² | - |
| 1777999489 | 19.44° C | 69% | 1015.4 hPa | 0 mm | - | 681 W/m² | - |
| 1777999186 | 18.89° C | 68% | 1015.4 hPa | 0 mm | - | 511 W/m² | - |
| 1777998885 | 18.89° C | 71% | 1015.4 hPa | 0 mm | - | 373 W/m² | - |
| 1777998584 | 18.33° C | 72% | 1015.4 hPa | 0 mm | - | 284 W/m² | - |
| 1777998279 | 17.78° C | 74% | 1015.4 hPa | 0 mm | - | 262 W/m² | - |
| 1777997976 | 17.78° C | 74% | 1015.4 hPa | 0 mm | - | 199 W/m² | - |
| 1777997672 | 18.33° C | 74% | 1015.4 hPa | 0 mm | - | 217 W/m² | - |
| 1777997370 | 17.78° C | 76% | 1015.4 hPa | 0 mm | - | 184 W/m² | - |
| 1777997068 | 17.78° C | 75% | 1015.8 hPa | 0 mm | - | 182 W/m² | - |
| 1777996764 | 17.78° C | 75% | 1015.8 hPa | 0 mm | - | 130 W/m² | - |
| 1777996461 | 17.78° C | 75% | 1015.4 hPa | 0 mm | - | 137 W/m² | - |
* Rain latest hour (hover to see other rain measurements)
** Current wind speed in m/s (hover to see current wind gust speed)